sensor_id;sensor_type;location;lat;lon;timestamp;P1;durP1;ratioP1;P2;durP2;ratioP2
16308;SDS011;8263;48.880;9.276;2023-03-01T00:01:59;153.65;;;141.90;;
16308;SDS011;8263;48.880;9.276;2023-03-01T00:04:26;153.38;;;141.65;;
16308;SDS011;8263;48.880;9.276;2023-03-01T00:06:54;155.20;;;143.02;;
16308;SDS011;8263;48.880;9.276;2023-03-01T00:09:21;153.25;;;141.32;;
16308;SDS011;8263;48.880;9.276;2023-03-01T00:11:47;152.60;;;140.95;;
16308;SDS011;8263;48.880;9.276;2023-03-01T00:14:13;153.18;;;141.43;;
16308;SDS011;8263;48.880;9.276;2023-03-01T00:16:41;153.75;;;141.95;;
16308;SDS011;8263;48.880;9.276;2023-03-01T00:19:10;153.65;;;141.75;;
16308;SDS011;8263;48.880;9.276;2023-03-01T00:21:37;153.88;;;142.02;;
16308;SDS011;8263;48.880;9.276;2023-03-01T00:24:05;154.52;;;142.35;;
16308;SDS011;8263;48.880;9.276;2023-03-01T00:26:32;153.02;;;141.10;;
16308;SDS011;8263;48.880;9.276;2023-03-01T00:28:58;153.30;;;141.40;;
16308;SDS011;8263;48.880;9.276;2023-03-01T00:31:26;154.45;;;142.55;;
16308;SDS011;8263;48.880;9.276;2023-03-01T00:33:53;153.68;;;141.88;;
16308;SDS011;8263;48.880;9.276;2023-03-01T00:36:22;152.23;;;140.55;;
16308;SDS011;8263;48.880;9.276;2023-03-01T00:38:49;153.77;;;141.77;;
16308;SDS011;8263;48.880;9.276;2023-03-01T00:41:17;155.68;;;143.38;;
16308;SDS011;8263;48.880;9.276;2023-03-01T00:43:44;154.13;;;142.05;;
16308;SDS011;8263;48.880;9.276;2023-03-01T00:46:12;155.85;;;143.45;;
16308;SDS011;8263;48.880;9.276;2023-03-01T00:48:38;155.80;;;143.63;;
16308;SDS011;8263;48.880;9.276;2023-03-01T00:51:06;153.98;;;142.15;;
16308;SDS011;8263;48.880;9.276;2023-03-01T00:53:33;154.98;;;142.82;;
16308;SDS011;8263;48.880;9.276;2023-03-01T00:55:59;151.32;;;139.73;;
16308;SDS011;8263;48.880;9.276;2023-03-01T00:58:27;154.13;;;142.02;;
16308;SDS011;8263;48.880;9.276;2023-03-01T01:00:54;153.48;;;141.70;;
16308;SDS011;8263;48.880;9.276;2023-03-01T01:03:20;154.00;;;142.20;;
16308;SDS011;8263;48.880;9.276;2023-03-01T01:05:47;154.02;;;142.18;;
16308;SDS011;8263;48.880;9.276;2023-03-01T01:08:13;152.93;;;141.23;;
16308;SDS011;8263;48.880;9.276;2023-03-01T01:10:39;155.35;;;143.00;;
16308;SDS011;8263;48.880;9.276;2023-03-01T01:13:06;155.05;;;142.85;;
16308;SDS011;8263;48.880;9.276;2023-03-01T01:15:34;155.35;;;143.07;;
16308;SDS011;8263;48.880;9.276;2023-03-01T01:18:01;153.82;;;141.98;;
16308;SDS011;8263;48.880;9.276;2023-03-01T01:20:27;154.40;;;142.55;;
16308;SDS011;8263;48.880;9.276;2023-03-01T01:22:54;154.00;;;142.15;;
16308;SDS011;8263;48.880;9.276;2023-03-01T01:25:21;153.15;;;141.23;;
16308;SDS011;8263;48.880;9.276;2023-03-01T01:27:49;154.95;;;142.90;;
16308;SDS011;8263;48.880;9.276;2023-03-01T01:30:16;155.35;;;143.35;;
16308;SDS011;8263;48.880;9.276;2023-03-01T01:32:44;154.00;;;142.02;;
16308;SDS011;8263;48.880;9.276;2023-03-01T01:35:10;156.13;;;144.02;;
16308;SDS011;8263;48.880;9.276;2023-03-01T01:37:37;151.05;;;139.52;;
16308;SDS011;8263;48.880;9.276;2023-03-01T01:40:04;153.38;;;141.57;;
16308;SDS011;8263;48.880;9.276;2023-03-01T01:42:31;153.23;;;141.43;;
16308;SDS011;8263;48.880;9.276;2023-03-01T01:47:44;154.63;;;142.73;;
16308;SDS011;8263;48.880;9.276;2023-03-01T01:50:14;155.13;;;143.07;;
16308;SDS011;8263;48.880;9.276;2023-03-01T01:52:42;155.38;;;143.38;;
16308;SDS011;8263;48.880;9.276;2023-03-01T01:55:10;154.93;;;142.82;;
16308;SDS011;8263;48.880;9.276;2023-03-01T01:57:39;154.73;;;142.73;;
16308;SDS011;8263;48.880;9.276;2023-03-01T02:00:07;155.00;;;142.93;;
16308;SDS011;8263;48.880;9.276;2023-03-01T02:02:34;156.50;;;144.20;;
16308;SDS011;8263;48.880;9.276;2023-03-01T02:05:03;155.63;;;143.57;;
16308;SDS011;8263;48.880;9.276;2023-03-01T02:07:35;155.20;;;143.18;;
16308;SDS011;8263;48.880;9.276;2023-03-01T02:10:05;155.85;;;143.35;;
16308;SDS011;8263;48.880;9.276;2023-03-01T02:12:32;154.32;;;142.30;;
16308;SDS011;8263;48.880;9.276;2023-03-01T02:14:58;155.55;;;143.50;;
16308;SDS011;8263;48.880;9.276;2023-03-01T02:17:25;155.80;;;143.70;;
16308;SDS011;8263;48.880;9.276;2023-03-01T02:19:55;155.10;;;143.10;;
16308;SDS011;8263;48.880;9.276;2023-03-01T02:22:25;156.18;;;143.98;;
16308;SDS011;8263;48.880;9.276;2023-03-01T02:24:56;155.30;;;143.30;;
16308;SDS011;8263;48.880;9.276;2023-03-01T02:27:28;154.38;;;142.48;;
16308;SDS011;8263;48.880;9.276;2023-03-01T02:29:58;154.93;;;143.00;;
16308;SDS011;8263;48.880;9.276;2023-03-01T02:32:24;155.20;;;143.13;;
16308;SDS011;8263;48.880;9.276;2023-03-01T02:34:51;154.75;;;142.75;;
16308;SDS011;8263;48.880;9.276;2023-03-01T02:37:18;155.45;;;143.35;;
16308;SDS011;8263;48.880;9.276;2023-03-01T02:39:50;156.38;;;144.27;;
16308;SDS011;8263;48.880;9.276;2023-03-01T02:42:18;156.85;;;144.65;;
16308;SDS011;8263;48.880;9.276;2023-03-01T02:44:48;157.27;;;144.77;;
16308;SDS011;8263;48.880;9.276;2023-03-01T02:47:16;155.32;;;143.15;;
16308;SDS011;8263;48.880;9.276;2023-03-01T02:49:43;155.60;;;143.00;;
16308;SDS011;8263;48.880;9.276;2023-03-01T02:52:30;154.60;;;142.40;;
16308;SDS011;8263;48.880;9.276;2023-03-01T02:55:00;158.43;;;145.90;;
16308;SDS011;8263;48.880;9.276;2023-03-01T02:57:28;153.73;;;141.85;;
16308;SDS011;8263;48.880;9.276;2023-03-01T02:59:55;156.15;;;144.05;;
16308;SDS011;8263;48.880;9.276;2023-03-01T03:02:24;158.65;;;145.60;;
16308;SDS011;8263;48.880;9.276;2023-03-01T03:05:01;156.60;;;144.23;;
16308;SDS011;8263;48.880;9.276;2023-03-01T03:07:27;155.70;;;143.57;;
16308;SDS011;8263;48.880;9.276;2023-03-01T03:09:54;155.77;;;143.45;;
16308;SDS011;8263;48.880;9.276;2023-03-01T03:12:20;156.95;;;144.27;;
16308;SDS011;8263;48.880;9.276;2023-03-01T03:14:47;157.10;;;144.50;;
16308;SDS011;8263;48.880;9.276;2023-03-01T03:17:14;156.98;;;144.68;;
16308;SDS011;8263;48.880;9.276;2023-03-01T03:19:41;158.98;;;145.93;;
16308;SDS011;8263;48.880;9.276;2023-03-01T03:22:10;156.07;;;143.95;;
16308;SDS011;8263;48.880;9.276;2023-03-01T03:24:36;157.52;;;145.13;;
16308;SDS011;8263;48.880;9.276;2023-03-01T03:27:03;156.85;;;144.45;;
16308;SDS011;8263;48.880;9.276;2023-03-01T03:29:29;154.70;;;142.60;;
16308;SDS011;8263;48.880;9.276;2023-03-01T03:31:56;157.93;;;145.48;;
16308;SDS011;8263;48.880;9.276;2023-03-01T03:34:22;158.82;;;146.05;;
16308;SDS011;8263;48.880;9.276;2023-03-01T03:36:53;157.48;;;144.95;;
16308;SDS011;8263;48.880;9.276;2023-03-01T03:39:21;156.05;;;143.50;;
16308;SDS011;8263;48.880;9.276;2023-03-01T03:41:48;155.73;;;143.63;;
16308;SDS011;8263;48.880;9.276;2023-03-01T03:44:14;157.05;;;144.48;;
16308;SDS011;8263;48.880;9.276;2023-03-01T03:46:41;156.55;;;144.35;;
16308;SDS011;8263;48.880;9.276;2023-03-01T03:49:07;155.73;;;143.52;;
16308;SDS011;8263;48.880;9.276;2023-03-01T03:51:34;155.70;;;143.13;;
16308;SDS011;8263;48.880;9.276;2023-03-01T03:54:02;156.40;;;144.15;;
16308;SDS011;8263;48.880;9.276;2023-03-01T03:56:28;155.43;;;143.43;;
16308;SDS011;8263;48.880;9.276;2023-03-01T03:58:55;156.00;;;143.93;;
16308;SDS011;8263;48.880;9.276;2023-03-01T04:01:21;156.10;;;143.88;;
16308;SDS011;8263;48.880;9.276;2023-03-01T04:03:48;156.10;;;143.70;;
16308;SDS011;8263;48.880;9.276;2023-03-01T04:06:19;155.32;;;143.30;;
16308;SDS011;8263;48.880;9.276;2023-03-01T04:08:45;156.25;;;143.65;;
16308;SDS011;8263;48.880;9.276;2023-03-01T04:11:17;155.27;;;143.23;;
16308;SDS011;8263;48.880;9.276;2023-03-01T04:13:53;155.30;;;141.90;;
16308;SDS011;8263;48.880;9.276;2023-03-01T04:16:20;155.90;;;143.60;;
16308;SDS011;8263;48.880;9.276;2023-03-01T04:18:46;156.23;;;144.13;;
16308;SDS011;8263;48.880;9.276;2023-03-01T04:21:13;155.32;;;142.90;;
16308;SDS011;8263;48.880;9.276;2023-03-01T04:23:39;155.70;;;143.60;;
16308;SDS011;8263;48.880;9.276;2023-03-01T04:26:07;155.05;;;143.00;;
16308;SDS011;8263;48.880;9.276;2023-03-01T04:28:36;156.00;;;143.70;;
16308;SDS011;8263;48.880;9.276;2023-03-01T04:31:06;154.82;;;142.50;;
16308;SDS011;8263;48.880;9.276;2023-03-01T04:33:38;153.75;;;141.82;;
16308;SDS011;8263;48.880;9.276;2023-03-01T04:36:04;153.23;;;141.40;;
16308;SDS011;8263;48.880;9.276;2023-03-01T04:38:34;157.23;;;144.63;;
16308;SDS011;8263;48.880;9.276;2023-03-01T04:41:02;156.52;;;143.73;;
16308;SDS011;8263;48.880;9.276;2023-03-01T04:43:28;155.50;;;143.40;;
16308;SDS011;8263;48.880;9.276;2023-03-01T04:46:00;153.20;;;141.35;;
16308;SDS011;8263;48.880;9.276;2023-03-01T04:48:28;154.43;;;142.48;;
16308;SDS011;8263;48.880;9.276;2023-03-01T04:50:55;156.45;;;144.25;;
16308;SDS011;8263;48.880;9.276;2023-03-01T04:53:21;156.55;;;144.20;;
16308;SDS011;8263;48.880;9.276;2023-03-01T04:55:48;155.27;;;143.07;;
16308;SDS011;8263;48.880;9.276;2023-03-01T04:58:14;155.40;;;143.10;;
16308;SDS011;8263;48.880;9.276;2023-03-01T05:00:40;154.57;;;142.73;;
16308;SDS011;8263;48.880;9.276;2023-03-01T05:03:08;154.93;;;143.02;;
16308;SDS011;8263;48.880;9.276;2023-03-01T05:05:35;153.30;;;141.38;;
16308;SDS011;8263;48.880;9.276;2023-03-01T05:08:02;155.88;;;143.50;;
16308;SDS011;8263;48.880;9.276;2023-03-01T05:10:30;154.27;;;142.32;;
16308;SDS011;8263;48.880;9.276;2023-03-01T05:12:57;156.82;;;144.48;;
16308;SDS011;8263;48.880;9.276;2023-03-01T05:15:24;155.02;;;142.90;;
16308;SDS011;8263;48.880;9.276;2023-03-01T05:17:51;155.27;;;143.20;;
16308;SDS011;8263;48.880;9.276;2023-03-01T05:20:21;154.38;;;142.52;;
16308;SDS011;8263;48.880;9.276;2023-03-01T05:22:49;154.60;;;142.60;;
16308;SDS011;8263;48.880;9.276;2023-03-01T05:25:15;155.63;;;143.15;;
16308;SDS011;8263;48.880;9.276;2023-03-01T05:27:43;153.43;;;141.63;;
16308;SDS011;8263;48.880;9.276;2023-03-01T05:30:09;154.38;;;142.45;;
16308;SDS011;8263;48.880;9.276;2023-03-01T05:32:42;155.65;;;143.45;;
16308;SDS011;8263;48.880;9.276;2023-03-01T05:35:10;154.90;;;142.50;;
16308;SDS011;8263;48.880;9.276;2023-03-01T05:37:39;156.70;;;144.35;;
16308;SDS011;8263;48.880;9.276;2023-03-01T05:40:06;156.38;;;144.07;;
16308;SDS011;8263;48.880;9.276;2023-03-01T05:42:40;154.77;;;142.77;;
16308;SDS011;8263;48.880;9.276;2023-03-01T05:45:07;153.15;;;141.30;;
16308;SDS011;8263;48.880;9.276;2023-03-01T05:47:34;154.40;;;142.25;;
16308;SDS011;8263;48.880;9.276;2023-03-01T05:50:00;153.48;;;141.63;;
16308;SDS011;8263;48.880;9.276;2023-03-01T05:52:27;155.27;;;142.93;;
16308;SDS011;8263;48.880;9.276;2023-03-01T05:54:55;157.13;;;144.35;;
16308;SDS011;8263;48.880;9.276;2023-03-01T05:57:21;153.93;;;142.02;;
16308;SDS011;8263;48.880;9.276;2023-03-01T05:59:47;153.82;;;141.90;;
16308;SDS011;8263;48.880;9.276;2023-03-01T06:02:14;155.15;;;142.98;;
16308;SDS011;8263;48.880;9.276;2023-03-01T06:04:40;154.80;;;142.63;;
16308;SDS011;8263;48.880;9.276;2023-03-01T06:07:07;153.27;;;141.50;;
16308;SDS011;8263;48.880;9.276;2023-03-01T06:09:34;156.30;;;143.63;;
16308;SDS011;8263;48.880;9.276;2023-03-01T06:12:02;154.48;;;142.57;;
16308;SDS011;8263;48.880;9.276;2023-03-01T06:14:28;154.48;;;142.48;;
16308;SDS011;8263;48.880;9.276;2023-03-01T06:16:54;154.18;;;142.18;;
16308;SDS011;8263;48.880;9.276;2023-03-01T06:19:21;158.63;;;146.13;;
16308;SDS011;8263;48.880;9.276;2023-03-01T06:21:47;156.90;;;144.13;;
16308;SDS011;8263;48.880;9.276;2023-03-01T06:24:14;153.70;;;141.70;;
16308;SDS011;8263;48.880;9.276;2023-03-01T06:26:40;154.27;;;142.40;;
16308;SDS011;8263;48.880;9.276;2023-03-01T06:29:08;156.70;;;144.25;;
16308;SDS011;8263;48.880;9.276;2023-03-01T06:31:35;154.93;;;142.82;;
16308;SDS011;8263;48.880;9.276;2023-03-01T06:34:01;157.10;;;144.43;;
16308;SDS011;8263;48.880;9.276;2023-03-01T06:36:27;156.48;;;143.98;;
16308;SDS011;8263;48.880;9.276;2023-03-01T06:38:54;154.45;;;142.30;;
16308;SDS011;8263;48.880;9.276;2023-03-01T06:41:20;154.75;;;142.75;;
16308;SDS011;8263;48.880;9.276;2023-03-01T06:43:47;154.93;;;142.93;;
16308;SDS011;8263;48.880;9.276;2023-03-01T06:46:14;158.07;;;145.20;;
16308;SDS011;8263;48.880;9.276;2023-03-01T06:48:41;156.65;;;143.98;;
16308;SDS011;8263;48.880;9.276;2023-03-01T06:51:07;156.05;;;143.98;;
16308;SDS011;8263;48.880;9.276;2023-03-01T06:53:34;155.05;;;142.95;;
16308;SDS011;8263;48.880;9.276;2023-03-01T06:56:00;154.65;;;142.68;;
16308;SDS011;8263;48.880;9.276;2023-03-01T06:58:27;153.57;;;141.63;;
16308;SDS011;8263;48.880;9.276;2023-03-01T07:00:53;153.88;;;142.02;;
16308;SDS011;8263;48.880;9.276;2023-03-01T07:03:21;156.13;;;143.93;;
16308;SDS011;8263;48.880;9.276;2023-03-01T07:05:48;154.40;;;142.43;;
16308;SDS011;8263;48.880;9.276;2023-03-01T07:08:14;154.20;;;142.30;;
16308;SDS011;8263;48.880;9.276;2023-03-01T07:10:41;154.10;;;142.18;;
16308;SDS011;8263;48.880;9.276;2023-03-01T07:13:07;154.52;;;142.45;;
16308;SDS011;8263;48.880;9.276;2023-03-01T07:15:34;153.75;;;141.50;;
16308;SDS011;8263;48.880;9.276;2023-03-01T07:18:00;154.40;;;142.23;;
16308;SDS011;8263;48.880;9.276;2023-03-01T07:20:28;156.32;;;143.85;;
16308;SDS011;8263;48.880;9.276;2023-03-01T07:22:55;154.23;;;142.15;;
16308;SDS011;8263;48.880;9.276;2023-03-01T07:25:23;155.60;;;143.27;;
16308;SDS011;8263;48.880;9.276;2023-03-01T07:27:50;155.65;;;143.35;;
16308;SDS011;8263;48.880;9.276;2023-03-01T07:30:17;155.40;;;143.07;;
16308;SDS011;8263;48.880;9.276;2023-03-01T07:32:43;154.93;;;142.98;;
16308;SDS011;8263;48.880;9.276;2023-03-01T07:35:10;153.82;;;141.98;;
16308;SDS011;8263;48.880;9.276;2023-03-01T07:37:38;155.10;;;142.85;;
16308;SDS011;8263;48.880;9.276;2023-03-01T07:40:06;156.27;;;143.63;;
16308;SDS011;8263;48.880;9.276;2023-03-01T07:42:32;154.57;;;142.43;;
16308;SDS011;8263;48.880;9.276;2023-03-01T07:44:59;153.82;;;141.85;;
16308;SDS011;8263;48.880;9.276;2023-03-01T07:47:25;154.73;;;142.65;;
16308;SDS011;8263;48.880;9.276;2023-03-01T07:49:51;155.20;;;142.70;;
16308;SDS011;8263;48.880;9.276;2023-03-01T07:52:18;155.23;;;143.13;;
16308;SDS011;8263;48.880;9.276;2023-03-01T07:54:46;154.52;;;142.45;;
16308;SDS011;8263;48.880;9.276;2023-03-01T07:57:12;155.63;;;143.18;;
16308;SDS011;8263;48.880;9.276;2023-03-01T07:59:39;153.52;;;141.68;;
16308;SDS011;8263;48.880;9.276;2023-03-01T08:02:05;153.77;;;141.77;;
16308;SDS011;8263;48.880;9.276;2023-03-01T08:04:32;156.23;;;143.88;;
16308;SDS011;8263;48.880;9.276;2023-03-01T08:06:58;156.88;;;144.02;;
16308;SDS011;8263;48.880;9.276;2023-03-01T08:09:25;156.35;;;143.60;;
16308;SDS011;8263;48.880;9.276;2023-03-01T08:11:52;152.43;;;140.60;;
16308;SDS011;8263;48.880;9.276;2023-03-01T08:14:20;155.50;;;143.23;;
16308;SDS011;8263;48.880;9.276;2023-03-01T08:16:48;154.30;;;141.88;;
16308;SDS011;8263;48.880;9.276;2023-03-01T08:19:15;156.93;;;144.40;;
16308;SDS011;8263;48.880;9.276;2023-03-01T08:21:41;154.90;;;142.80;;
16308;SDS011;8263;48.880;9.276;2023-03-01T08:24:08;154.82;;;142.75;;
16308;SDS011;8263;48.880;9.276;2023-03-01T08:26:35;152.65;;;140.98;;
16308;SDS011;8263;48.880;9.276;2023-03-01T08:29:03;156.13;;;143.07;;
16308;SDS011;8263;48.880;9.276;2023-03-01T08:31:30;154.00;;;141.98;;
16308;SDS011;8263;48.880;9.276;2023-03-01T08:33:58;155.82;;;143.57;;
16308;SDS011;8263;48.880;9.276;2023-03-01T08:36:25;153.18;;;141.27;;
16308;SDS011;8263;48.880;9.276;2023-03-01T08:38:52;155.60;;;142.48;;
16308;SDS011;8263;48.880;9.276;2023-03-01T08:41:19;155.50;;;142.98;;
16308;SDS011;8263;48.880;9.276;2023-03-01T08:43:45;151.38;;;139.70;;
16308;SDS011;8263;48.880;9.276;2023-03-01T08:46:13;153.73;;;141.75;;
16308;SDS011;8263;48.880;9.276;2023-03-01T08:48:39;154.48;;;142.32;;
16308;SDS011;8263;48.880;9.276;2023-03-01T08:51:08;153.25;;;141.25;;
16308;SDS011;8263;48.880;9.276;2023-03-01T08:53:35;154.00;;;141.98;;
16308;SDS011;8263;48.880;9.276;2023-03-01T08:56:01;154.88;;;142.80;;
16308;SDS011;8263;48.880;9.276;2023-03-01T08:58:28;153.30;;;141.57;;
16308;SDS011;8263;48.880;9.276;2023-03-01T09:00:55;152.95;;;140.77;;
16308;SDS011;8263;48.880;9.276;2023-03-01T09:03:23;153.25;;;140.95;;
16308;SDS011;8263;48.880;9.276;2023-03-01T09:05:49;152.43;;;140.32;;
16308;SDS011;8263;48.880;9.276;2023-03-01T09:08:16;154.57;;;142.00;;
16308;SDS011;8263;48.880;9.276;2023-03-01T09:10:42;153.68;;;141.07;;
16308;SDS011;8263;48.880;9.276;2023-03-01T09:13:09;153.48;;;141.07;;
16308;SDS011;8263;48.880;9.276;2023-03-01T09:15:36;151.75;;;140.23;;
16308;SDS011;8263;48.880;9.276;2023-03-01T09:18:03;150.73;;;139.00;;
16308;SDS011;8263;48.880;9.276;2023-03-01T09:20:32;150.70;;;138.85;;
16308;SDS011;8263;48.880;9.276;2023-03-01T09:22:58;151.43;;;139.77;;
16308;SDS011;8263;48.880;9.276;2023-03-01T09:25:25;153.45;;;141.40;;
16308;SDS011;8263;48.880;9.276;2023-03-01T09:27:52;152.15;;;140.45;;
16308;SDS011;8263;48.880;9.276;2023-03-01T09:30:18;152.02;;;140.15;;
16308;SDS011;8263;48.880;9.276;2023-03-01T09:32:45;151.93;;;139.63;;
16308;SDS011;8263;48.880;9.276;2023-03-01T09:35:12;150.35;;;138.85;;
16308;SDS011;8263;48.880;9.276;2023-03-01T09:37:40;152.18;;;140.38;;
16308;SDS011;8263;48.880;9.276;2023-03-01T09:40:11;148.88;;;137.15;;
16308;SDS011;8263;48.880;9.276;2023-03-01T09:42:45;152.15;;;140.23;;
16308;SDS011;8263;48.880;9.276;2023-03-01T09:45:15;150.52;;;138.77;;
16308;SDS011;8263;48.880;9.276;2023-03-01T09:47:45;150.38;;;138.90;;
16308;SDS011;8263;48.880;9.276;2023-03-01T09:50:12;151.82;;;140.00;;
16308;SDS011;8263;48.880;9.276;2023-03-01T09:52:41;150.07;;;138.57;;
16308;SDS011;8263;48.880;9.276;2023-03-01T09:55:09;148.27;;;137.18;;
16308;SDS011;8263;48.880;9.276;2023-03-01T09:57:36;150.25;;;138.75;;
16308;SDS011;8263;48.880;9.276;2023-03-01T10:00:13;149.02;;;137.43;;
16308;SDS011;8263;48.880;9.276;2023-03-01T10:02:43;147.90;;;136.75;;
16308;SDS011;8263;48.880;9.276;2023-03-01T10:05:14;149.10;;;137.60;;
16308;SDS011;8263;48.880;9.276;2023-03-01T10:07:47;147.23;;;136.13;;
16308;SDS011;8263;48.880;9.276;2023-03-01T10:10:16;149.10;;;137.60;;
16308;SDS011;8263;48.880;9.276;2023-03-01T10:12:47;148.90;;;136.93;;
16308;SDS011;8263;48.880;9.276;2023-03-01T10:15:15;147.85;;;136.55;;
16308;SDS011;8263;48.880;9.276;2023-03-01T10:17:44;146.55;;;135.25;;
16308;SDS011;8263;48.880;9.276;2023-03-01T10:20:15;145.82;;;134.95;;
16308;SDS011;8263;48.880;9.276;2023-03-01T10:22:42;147.35;;;136.13;;
16308;SDS011;8263;48.880;9.276;2023-03-01T10:25:13;147.00;;;135.73;;
16308;SDS011;8263;48.880;9.276;2023-03-01T10:27:42;148.48;;;137.10;;
16308;SDS011;8263;48.880;9.276;2023-03-01T10:30:12;145.45;;;134.57;;
16308;SDS011;8263;48.880;9.276;2023-03-01T10:32:41;144.00;;;133.30;;
16308;SDS011;8263;48.880;9.276;2023-03-01T10:35:15;146.07;;;134.98;;
16308;SDS011;8263;48.880;9.276;2023-03-01T10:37:46;144.52;;;133.77;;
16308;SDS011;8263;48.880;9.276;2023-03-01T10:40:26;144.10;;;133.48;;
16308;SDS011;8263;48.880;9.276;2023-03-01T10:42:52;145.68;;;134.60;;
16308;SDS011;8263;48.880;9.276;2023-03-01T10:45:27;140.77;;;130.20;;
16308;SDS011;8263;48.880;9.276;2023-03-01T10:48:03;144.10;;;133.40;;
16308;SDS011;8263;48.880;9.276;2023-03-01T10:50:29;144.25;;;133.23;;
16308;SDS011;8263;48.880;9.276;2023-03-01T10:52:57;142.80;;;131.98;;
16308;SDS011;8263;48.880;9.276;2023-03-01T10:55:26;141.88;;;131.30;;
16308;SDS011;8263;48.880;9.276;2023-03-01T10:58:06;142.77;;;132.15;;
16308;SDS011;8263;48.880;9.276;2023-03-01T11:00:33;141.38;;;130.95;;
16308;SDS011;8263;48.880;9.276;2023-03-01T11:03:09;142.32;;;131.75;;
16308;SDS011;8263;48.880;9.276;2023-03-01T11:05:35;142.55;;;131.95;;
16308;SDS011;8263;48.880;9.276;2023-03-01T11:08:02;141.85;;;131.25;;
16308;SDS011;8263;48.880;9.276;2023-03-01T11:10:31;141.27;;;130.88;;
16308;SDS011;8263;48.880;9.276;2023-03-01T11:13:05;140.48;;;130.18;;
16308;SDS011;8263;48.880;9.276;2023-03-01T11:15:32;141.60;;;131.20;;
16308;SDS011;8263;48.880;9.276;2023-03-01T11:17:58;139.70;;;129.57;;
16308;SDS011;8263;48.880;9.276;2023-03-01T11:20:26;141.38;;;130.90;;
16308;SDS011;8263;48.880;9.276;2023-03-01T11:22:57;136.85;;;126.35;;
16308;SDS011;8263;48.880;9.276;2023-03-01T11:25:25;140.55;;;129.63;;
16308;SDS011;8263;48.880;9.276;2023-03-01T11:27:54;139.93;;;129.63;;
16308;SDS011;8263;48.880;9.276;2023-03-01T11:30:22;141.68;;;130.85;;
16308;SDS011;8263;48.880;9.276;2023-03-01T11:32:51;139.82;;;129.40;;
16308;SDS011;8263;48.880;9.276;2023-03-01T11:35:20;140.98;;;129.98;;
16308;SDS011;8263;48.880;9.276;2023-03-01T11:37:51;138.77;;;128.55;;
16308;SDS011;8263;48.880;9.276;2023-03-01T11:40:23;139.45;;;128.93;;
16308;SDS011;8263;48.880;9.276;2023-03-01T11:42:54;137.48;;;127.22;;
16308;SDS011;8263;48.880;9.276;2023-03-01T11:45:23;139.00;;;128.38;;
16308;SDS011;8263;48.880;9.276;2023-03-01T11:47:55;138.18;;;127.82;;
16308;SDS011;8263;48.880;9.276;2023-03-01T11:50:28;139.20;;;128.95;;
16308;SDS011;8263;48.880;9.276;2023-03-01T11:52:58;138.73;;;128.07;;
16308;SDS011;8263;48.880;9.276;2023-03-01T11:55:30;135.45;;;125.63;;
16308;SDS011;8263;48.880;9.276;2023-03-01T11:58:05;139.27;;;128.98;;
16308;SDS011;8263;48.880;9.276;2023-03-01T12:03:28;139.45;;;128.60;;
16308;SDS011;8263;48.880;9.276;2023-03-01T12:06:02;136.75;;;126.78;;
16308;SDS011;8263;48.880;9.276;2023-03-01T12:08:34;137.65;;;127.50;;
16308;SDS011;8263;48.880;9.276;2023-03-01T12:11:03;135.23;;;125.25;;
16308;SDS011;8263;48.880;9.276;2023-03-01T12:13:42;135.77;;;125.75;;
16308;SDS011;8263;48.880;9.276;2023-03-01T12:16:23;136.68;;;126.57;;
16308;SDS011;8263;48.880;9.276;2023-03-01T12:19:03;136.63;;;126.53;;
16308;SDS011;8263;48.880;9.276;2023-03-01T12:21:41;135.80;;;125.82;;
16308;SDS011;8263;48.880;9.276;2023-03-01T12:24:18;134.07;;;124.40;;
16308;SDS011;8263;48.880;9.276;2023-03-01T12:26:50;134.07;;;124.38;;
16308;SDS011;8263;48.880;9.276;2023-03-01T12:29:22;134.15;;;124.55;;
16308;SDS011;8263;48.880;9.276;2023-03-01T12:31:57;136.55;;;126.13;;
16308;SDS011;8263;48.880;9.276;2023-03-01T12:37:27;135.50;;;125.45;;
16308;SDS011;8263;48.880;9.276;2023-03-01T12:40:00;134.18;;;124.28;;
16308;SDS011;8263;48.880;9.276;2023-03-01T12:42:29;132.90;;;123.30;;
16308;SDS011;8263;48.880;9.276;2023-03-01T12:45:02;133.55;;;123.72;;
16308;SDS011;8263;48.880;9.276;2023-03-01T12:47:44;135.55;;;125.50;;
16308;SDS011;8263;48.880;9.276;2023-03-01T12:50:16;134.25;;;124.45;;
16308;SDS011;8263;48.880;9.276;2023-03-01T12:52:47;134.65;;;124.45;;
16308;SDS011;8263;48.880;9.276;2023-03-01T12:55:18;131.95;;;122.28;;
16308;SDS011;8263;48.880;9.276;2023-03-01T12:57:46;135.50;;;125.53;;
16308;SDS011;8263;48.880;9.276;2023-03-01T13:00:19;132.13;;;122.63;;
16308;SDS011;8263;48.880;9.276;2023-03-01T13:02:49;131.73;;;122.18;;
16308;SDS011;8263;48.880;9.276;2023-03-01T13:05:31;135.73;;;125.63;;
16308;SDS011;8263;48.880;9.276;2023-03-01T13:08:05;133.45;;;123.35;;
16308;SDS011;8263;48.880;9.276;2023-03-01T13:10:33;135.13;;;124.88;;
16308;SDS011;8263;48.880;9.276;2023-03-01T13:13:02;135.30;;;124.72;;
16308;SDS011;8263;48.880;9.276;2023-03-01T13:15:33;132.93;;;122.90;;
16308;SDS011;8263;48.880;9.276;2023-03-01T13:18:00;132.32;;;122.82;;
16308;SDS011;8263;48.880;9.276;2023-03-01T13:20:29;131.75;;;121.90;;
16308;SDS011;8263;48.880;9.276;2023-03-01T13:23:03;131.15;;;121.63;;
16308;SDS011;8263;48.880;9.276;2023-03-01T13:25:30;131.73;;;121.82;;
16308;SDS011;8263;48.880;9.276;2023-03-01T13:30:39;133.68;;;123.75;;
16308;SDS011;8263;48.880;9.276;2023-03-01T13:35:50;132.70;;;122.88;;
16308;SDS011;8263;48.880;9.276;2023-03-01T13:41:04;133.02;;;123.25;;
16308;SDS011;8263;48.880;9.276;2023-03-01T13:43:32;130.70;;;120.80;;
16308;SDS011;8263;48.880;9.276;2023-03-01T13:45:59;133.75;;;123.40;;
16308;SDS011;8263;48.880;9.276;2023-03-01T13:48:26;134.05;;;123.78;;
16308;SDS011;8263;48.880;9.276;2023-03-01T13:50:54;130.93;;;121.35;;
16308;SDS011;8263;48.880;9.276;2023-03-01T13:53:22;131.13;;;121.60;;
16308;SDS011;8263;48.880;9.276;2023-03-01T13:55:50;134.02;;;123.72;;
16308;SDS011;8263;48.880;9.276;2023-03-01T13:58:21;131.98;;;122.30;;
16308;SDS011;8263;48.880;9.276;2023-03-01T14:00:54;133.55;;;123.70;;
16308;SDS011;8263;48.880;9.276;2023-03-01T14:03:21;132.05;;;122.45;;
16308;SDS011;8263;48.880;9.276;2023-03-01T14:05:59;131.40;;;121.93;;
16308;SDS011;8263;48.880;9.276;2023-03-01T14:08:26;133.48;;;122.80;;
16308;SDS011;8263;48.880;9.276;2023-03-01T14:13:43;133.00;;;123.13;;
16308;SDS011;8263;48.880;9.276;2023-03-01T14:16:17;133.02;;;123.00;;
16308;SDS011;8263;48.880;9.276;2023-03-01T14:18:47;130.85;;;121.45;;
16308;SDS011;8263;48.880;9.276;2023-03-01T14:21:17;132.68;;;122.13;;
16308;SDS011;8263;48.880;9.276;2023-03-01T14:23:43;133.55;;;123.45;;
16308;SDS011;8263;48.880;9.276;2023-03-01T14:26:11;131.15;;;121.60;;
16308;SDS011;8263;48.880;9.276;2023-03-01T14:28:38;133.25;;;123.22;;
16308;SDS011;8263;48.880;9.276;2023-03-01T14:33:48;132.48;;;122.43;;
16308;SDS011;8263;48.880;9.276;2023-03-01T14:36:25;132.07;;;122.18;;
16308;SDS011;8263;48.880;9.276;2023-03-01T14:38:52;132.45;;;122.70;;